createdAt,value
2023-03-21T00:00:36.069Z,11.20
2023-03-21T00:03:04.183Z,11.20
2023-03-21T00:05:32.401Z,11.10
2023-03-21T00:08:01.851Z,11.10
2023-03-21T00:10:40.527Z,11.10
2023-03-21T00:13:13.285Z,11.10
2023-03-21T00:16:05.637Z,11.10
2023-03-21T00:18:42.226Z,11.10
2023-03-21T00:21:39.622Z,11.10
2023-03-21T00:24:03.480Z,11.10
2023-03-21T00:26:31.705Z,11.00
2023-03-21T00:28:59.722Z,11.10
2023-03-21T00:31:29.204Z,11.10
2023-03-21T00:33:57.591Z,11.10
2023-03-21T00:36:26.010Z,11.10
2023-03-21T00:38:54.416Z,11.10
2023-03-21T00:41:39.278Z,11.00
2023-03-21T00:44:09.530Z,10.90
2023-03-21T00:47:00.531Z,10.80
2023-03-21T00:49:27.706Z,10.80
2023-03-21T00:51:59.496Z,10.80
2023-03-21T00:54:33.793Z,10.90
2023-03-21T00:57:03.033Z,10.90
2023-03-21T00:59:31.240Z,10.80
2023-03-21T01:02:01.299Z,10.80
2023-03-21T01:04:29.847Z,10.80
2023-03-21T01:06:57.837Z,10.80
2023-03-21T01:09:26.553Z,10.80
2023-03-21T01:11:54.696Z,10.80
2023-03-21T01:14:24.164Z,10.80
2023-03-21T01:16:53.732Z,10.70
2023-03-21T01:19:40.960Z,10.60
2023-03-21T01:22:16.458Z,10.60
2023-03-21T01:24:53.174Z,10.60
2023-03-21T01:27:23.621Z,10.70
2023-03-21T01:29:51.580Z,10.70
2023-03-21T01:32:19.590Z,10.70
2023-03-21T01:34:48.993Z,10.70
2023-03-21T01:37:17.848Z,10.60
2023-03-21T01:39:45.910Z,10.60
2023-03-21T01:42:15.482Z,10.60
2023-03-21T01:44:58.341Z,10.70
2023-03-21T01:47:26.760Z,10.70
2023-03-21T01:49:58.829Z,10.60
2023-03-21T01:52:37.119Z,10.70
2023-03-21T01:55:11.966Z,10.70
2023-03-21T01:57:58.168Z,10.70
2023-03-21T02:00:32.658Z,10.70
2023-03-21T02:03:13.567Z,10.70
2023-03-21T02:05:52.458Z,10.70
2023-03-21T02:08:25.909Z,10.70
2023-03-21T02:11:01.574Z,10.70
2023-03-21T02:13:29.589Z,10.70
2023-03-21T02:16:02.973Z,10.70
2023-03-21T02:18:39.742Z,10.70
2023-03-21T02:21:36.348Z,10.70
2023-03-21T02:24:32.381Z,10.70
2023-03-21T02:27:09.362Z,10.70
2023-03-21T02:30:13.004Z,10.70
2023-03-21T02:33:00.984Z,10.60
2023-03-21T02:35:54.539Z,10.60
2023-03-21T02:38:30.665Z,10.60
2023-03-21T02:41:16.609Z,10.60
2023-03-21T02:43:53.392Z,10.60
2023-03-21T02:46:33.386Z,10.60
2023-03-21T02:49:10.498Z,10.60
2023-03-21T02:51:41.104Z,10.60
2023-03-21T02:54:30.328Z,10.60
2023-03-21T02:57:05.459Z,10.70
2023-03-21T02:59:39.378Z,10.60
2023-03-21T03:02:10.195Z,10.60
2023-03-21T03:04:38.254Z,10.50
2023-03-21T03:07:27.267Z,10.60
2023-03-21T03:10:12.894Z,10.50
2023-03-21T03:12:50.650Z,10.50
2023-03-21T03:15:29.329Z,10.50
2023-03-21T03:18:06.214Z,10.50
2023-03-21T03:20:44.377Z,10.50
2023-03-21T03:23:23.127Z,10.50
2023-03-21T03:25:57.506Z,10.60
2023-03-21T03:28:30.904Z,10.60
2023-03-21T03:31:09.220Z,10.60
2023-03-21T03:33:41.598Z,10.50
2023-03-21T03:36:18.854Z,10.50
2023-03-21T03:38:53.387Z,10.50
2023-03-21T03:41:27.049Z,10.50
2023-03-21T03:43:58.558Z,10.60
2023-03-21T03:46:30.838Z,10.50
2023-03-21T03:49:04.155Z,10.40
2023-03-21T03:51:37.781Z,10.30
2023-03-21T03:54:10.025Z,10.30
2023-03-21T03:56:40.844Z,10.40
2023-03-21T03:59:09.118Z,10.40
2023-03-21T04:01:37.541Z,10.40
2023-03-21T04:04:12.911Z,10.40
2023-03-21T04:06:41.587Z,10.40
2023-03-21T04:09:20.658Z,10.40
2023-03-21T04:11:51.465Z,10.50
2023-03-21T04:14:19.497Z,10.50
2023-03-21T04:16:47.468Z,10.50
2023-03-21T04:19:15.945Z,10.50
2023-03-21T04:21:44.151Z,10.50
2023-03-21T04:24:13.912Z,10.40
2023-03-21T04:26:42.010Z,10.40
2023-03-21T04:29:11.379Z,10.40
2023-03-21T04:31:41.597Z,10.40
2023-03-21T04:34:12.412Z,10.40
2023-03-21T04:36:43.523Z,10.50
2023-03-21T04:39:13.182Z,10.40
2023-03-21T04:41:41.619Z,10.40
2023-03-21T04:44:12.468Z,10.40
2023-03-21T04:46:41.077Z,10.40
2023-03-21T04:49:09.448Z,10.40
2023-03-21T04:51:38.875Z,10.40
2023-03-21T04:56:36.373Z,10.30
2023-03-21T04:59:08.493Z,10.30
2023-03-21T05:01:37.951Z,10.30
2023-03-21T05:04:07.052Z,10.60
2023-03-21T05:06:35.353Z,10.40
2023-03-21T05:09:05.698Z,10.30
2023-03-21T05:11:36.072Z,10.20
2023-03-21T05:14:04.282Z,10.20
2023-03-21T05:16:32.289Z,10.20
2023-03-21T05:19:04.197Z,10.00
2023-03-21T05:21:34.210Z,9.90
2023-03-21T05:24:03.649Z,9.80
2023-03-21T05:26:31.665Z,9.70
2023-03-21T05:28:59.662Z,9.70
2023-03-21T05:31:27.593Z,9.80
2023-03-21T05:33:55.724Z,9.80
2023-03-21T05:36:25.215Z,9.90
2023-03-21T05:38:53.178Z,10.00
2023-03-21T05:41:21.447Z,10.10
2023-03-21T05:43:49.400Z,10.20
2023-03-21T05:46:17.529Z,10.40
2023-03-21T05:48:45.539Z,10.50
2023-03-21T05:51:13.529Z,10.40
2023-03-21T05:53:43.007Z,10.40
2023-03-21T05:56:11.598Z,10.40
2023-03-21T05:58:39.613Z,10.50
2023-03-21T06:01:08.435Z,10.60
2023-03-21T06:03:36.754Z,10.70
2023-03-21T06:06:05.148Z,10.90
2023-03-21T06:08:33.191Z,11.00
2023-03-21T06:11:02.712Z,11.10
2023-03-21T06:13:32.718Z,11.10
2023-03-21T06:16:01.583Z,11.20
2023-03-21T06:18:29.587Z,11.30
2023-03-21T06:20:57.828Z,11.40
2023-03-21T06:23:25.878Z,11.50
2023-03-21T06:25:53.855Z,11.50
2023-03-21T06:28:23.196Z,11.40
2023-03-21T06:30:51.170Z,11.30
2023-03-21T06:33:19.265Z,11.20
2023-03-21T06:35:53.612Z,11.30
2023-03-21T06:38:21.784Z,11.30
2023-03-21T06:40:50.385Z,11.40
2023-03-21T06:43:18.586Z,11.40
2023-03-21T06:45:47.947Z,11.30
2023-03-21T06:48:15.941Z,11.30
2023-03-21T06:50:44.021Z,11.30
2023-03-21T06:53:12.069Z,11.30
2023-03-21T06:55:40.421Z,11.20
2023-03-21T06:58:14.736Z,11.20
2023-03-21T07:00:42.929Z,11.10
2023-03-21T07:03:12.672Z,11.00
2023-03-21T07:05:42.098Z,11.10
2023-03-21T07:08:12.327Z,11.20
2023-03-21T07:10:44.340Z,11.30
2023-03-21T07:13:13.625Z,11.30
2023-03-21T07:15:41.771Z,11.40
2023-03-21T07:18:11.789Z,11.40
2023-03-21T07:20:39.934Z,11.40
2023-03-21T07:23:08.366Z,11.40
2023-03-21T07:25:37.218Z,11.40
2023-03-21T07:28:09.148Z,11.30
2023-03-21T07:30:37.838Z,11.40
2023-03-21T07:33:07.430Z,11.40
2023-03-21T07:35:37.687Z,11.50
2023-03-21T07:38:06.314Z,11.60
2023-03-21T07:40:34.485Z,11.60
2023-03-21T07:45:36.018Z,11.40
2023-03-21T07:48:04.290Z,11.30
2023-03-21T07:50:32.680Z,11.40
2023-03-21T07:53:02.148Z,11.50
2023-03-21T07:55:30.254Z,11.50
2023-03-21T07:57:58.223Z,11.60
2023-03-21T08:00:27.041Z,11.70
2023-03-21T08:02:58.897Z,11.80
2023-03-21T08:05:28.973Z,11.90
2023-03-21T08:07:57.296Z,11.90
2023-03-21T08:10:27.288Z,12.00
2023-03-21T08:12:55.380Z,12.10
2023-03-21T08:15:23.866Z,12.20
2023-03-21T08:17:52.364Z,12.20
2023-03-21T08:20:22.312Z,12.10
2023-03-21T08:22:51.147Z,12.00
2023-03-21T08:25:21.796Z,11.90
2023-03-21T08:27:52.264Z,12.00
2023-03-21T08:30:22.310Z,11.90
2023-03-21T08:32:51.100Z,12.00
2023-03-21T08:35:20.735Z,12.20
2023-03-21T08:37:48.897Z,12.30
2023-03-21T08:40:20.612Z,12.50
2023-03-21T08:42:48.658Z,12.60
2023-03-21T08:45:19.530Z,12.70
2023-03-21T08:47:48.172Z,12.70
2023-03-21T08:50:18.427Z,12.70
2023-03-21T08:52:47.189Z,12.80
2023-03-21T08:55:16.640Z,12.70
2023-03-21T08:57:45.184Z,12.80
2023-03-21T09:00:17.175Z,13.00
2023-03-21T09:02:48.498Z,12.80
2023-03-21T09:05:16.964Z,12.80
2023-03-21T09:07:45.557Z,12.60
2023-03-21T09:10:22.719Z,12.80
2023-03-21T09:12:53.333Z,13.10
2023-03-21T09:15:24.329Z,12.90
2023-03-21T09:17:55.898Z,12.50
2023-03-21T09:20:30.924Z,12.50
2023-03-21T09:23:01.584Z,12.30
2023-03-21T09:25:31.145Z,12.20
2023-03-21T09:28:00.351Z,12.00
2023-03-21T09:30:28.672Z,12.10
2023-03-21T09:32:59.614Z,11.90
2023-03-21T09:35:29.069Z,11.90
2023-03-21T09:37:59.578Z,11.80
2023-03-21T09:40:53.019Z,11.80
2023-03-21T09:43:35.705Z,11.90
2023-03-21T09:46:10.735Z,12.00
2023-03-21T09:48:56.749Z,12.30
2023-03-21T09:51:29.180Z,12.40
2023-03-21T09:54:00.891Z,12.20
2023-03-21T09:56:29.361Z,12.00
2023-03-21T09:59:00.345Z,12.10
2023-03-21T10:01:34.625Z,12.30
2023-03-21T10:04:08.095Z,12.40
2023-03-21T10:06:40.170Z,12.60
2023-03-21T10:09:15.126Z,12.80
2023-03-21T10:11:46.214Z,12.80
2023-03-21T10:14:20.209Z,12.80
2023-03-21T10:16:51.059Z,12.90
2023-03-21T10:19:21.461Z,12.90
2023-03-21T10:22:00.902Z,12.80
2023-03-21T10:24:32.647Z,12.60
2023-03-21T10:27:02.498Z,12.70
2023-03-21T10:29:43.307Z,12.90
2023-03-21T10:32:13.084Z,13.00
2023-03-21T10:34:47.047Z,13.20
2023-03-21T10:37:16.883Z,13.30
2023-03-21T10:39:48.291Z,13.40
2023-03-21T10:42:21.661Z,13.30
2023-03-21T10:44:51.803Z,13.30
2023-03-21T10:47:23.067Z,13.50
2023-03-21T10:50:09.485Z,13.80
2023-03-21T10:52:42.752Z,14.10
2023-03-21T10:55:21.454Z,14.60
2023-03-21T10:57:50.334Z,14.80
2023-03-21T11:00:23.074Z,14.90
2023-03-21T11:02:52.704Z,14.40
2023-03-21T11:05:25.276Z,14.40
2023-03-21T11:08:02.885Z,14.40
2023-03-21T11:10:33.417Z,14.40
2023-03-21T11:13:07.167Z,14.50
2023-03-21T11:15:43.322Z,14.50
2023-03-21T11:18:21.334Z,14.60
2023-03-21T11:20:58.214Z,14.60
2023-03-21T11:23:30.780Z,14.70
2023-03-21T11:26:01.413Z,14.40
2023-03-21T11:28:39.390Z,14.30
2023-03-21T11:31:09.319Z,14.10
2023-03-21T11:33:40.378Z,14.50
2023-03-21T11:36:28.498Z,14.80
2023-03-21T11:38:59.884Z,15.00
2023-03-21T11:41:32.017Z,15.00
2023-03-21T11:44:01.718Z,15.10
2023-03-21T11:46:31.484Z,15.10
2023-03-21T11:49:01.649Z,15.10
2023-03-21T11:51:38.156Z,15.00
2023-03-21T11:54:13.837Z,14.80
2023-03-21T11:56:46.672Z,14.50
2023-03-21T11:59:29.024Z,14.20
2023-03-21T12:02:07.016Z,14.10
2023-03-21T12:04:43.316Z,14.00
2023-03-21T12:07:26.844Z,13.50
2023-03-21T12:10:02.197Z,13.40
2023-03-21T12:12:40.036Z,13.30
2023-03-21T12:15:18.854Z,13.20
2023-03-21T12:17:56.154Z,13.30
2023-03-21T12:20:43.304Z,13.50
2023-03-21T12:23:30.160Z,13.60
2023-03-21T12:26:11.185Z,13.50
2023-03-21T12:28:48.752Z,13.60
2023-03-21T12:31:26.589Z,13.50
2023-03-21T12:34:13.589Z,13.50
2023-03-21T12:36:55.749Z,13.60
2023-03-21T12:39:30.923Z,13.70
2023-03-21T12:42:18.479Z,13.70
2023-03-21T12:44:51.674Z,13.50
2023-03-21T12:47:25.040Z,13.60
2023-03-21T12:49:57.556Z,13.40
2023-03-21T12:52:28.490Z,13.30
2023-03-21T12:55:03.191Z,13.30
2023-03-21T12:57:40.206Z,13.40
2023-03-21T13:00:17.617Z,13.60
2023-03-21T13:02:51.675Z,13.70
2023-03-21T13:05:24.606Z,13.70
2023-03-21T13:07:57.718Z,13.80
2023-03-21T13:10:27.510Z,13.80
2023-03-21T13:13:18.440Z,13.80
2023-03-21T13:15:58.570Z,14.00
2023-03-21T13:18:39.829Z,14.20
2023-03-21T13:21:16.690Z,14.40
2023-03-21T13:24:02.060Z,14.20
2023-03-21T13:26:41.184Z,14.00
2023-03-21T13:29:22.946Z,13.80
2023-03-21T13:31:55.191Z,13.60
2023-03-21T13:34:25.772Z,13.50
2023-03-21T13:36:57.905Z,13.50
2023-03-21T13:39:29.611Z,13.50
2023-03-21T13:42:07.336Z,13.40
2023-03-21T13:44:42.351Z,13.40
2023-03-21T13:47:29.499Z,13.60
2023-03-21T13:50:34.386Z,13.80
2023-03-21T13:53:21.704Z,13.80
2023-03-21T13:56:00.656Z,14.00
2023-03-21T13:58:40.217Z,14.20
2023-03-21T14:01:36.520Z,14.10
2023-03-21T14:04:17.583Z,14.10
2023-03-21T14:06:50.845Z,14.30
2023-03-21T14:09:26.112Z,14.30
2023-03-21T14:11:58.758Z,14.50
2023-03-21T14:14:38.578Z,14.60
2023-03-21T14:17:13.391Z,14.50
2023-03-21T14:19:41.414Z,14.40
2023-03-21T14:22:12.955Z,14.30
2023-03-21T14:24:41.315Z,14.20
2023-03-21T14:27:10.100Z,14.00
2023-03-21T14:29:41.801Z,13.90
2023-03-21T14:32:22.981Z,14.00
2023-03-21T14:34:51.238Z,14.00
2023-03-21T14:37:32.148Z,13.80
2023-03-21T14:40:02.210Z,13.60
2023-03-21T14:42:35.899Z,13.60
2023-03-21T14:45:20.258Z,13.40
2023-03-21T14:47:59.993Z,13.30
2023-03-21T14:50:34.796Z,13.00
2023-03-21T14:53:03.210Z,13.00
2023-03-21T14:55:31.945Z,12.80
2023-03-21T14:58:00.122Z,12.70
2023-03-21T15:00:31.784Z,12.60
2023-03-21T15:03:03.063Z,12.60
2023-03-21T15:05:33.791Z,12.60
2023-03-21T15:08:03.903Z,12.70
2023-03-21T15:10:32.792Z,12.80
2023-03-21T15:13:03.290Z,12.80
2023-03-21T15:15:34.004Z,12.80
2023-03-21T15:18:06.035Z,12.90
2023-03-21T15:20:37.542Z,12.80
2023-03-21T15:23:09.462Z,12.70
2023-03-21T15:25:38.600Z,12.80
2023-03-21T15:28:07.108Z,12.80
2023-03-21T15:30:36.587Z,12.70
2023-03-21T15:33:09.543Z,12.70
2023-03-21T15:35:40.437Z,12.60
2023-03-21T15:38:21.948Z,12.60
2023-03-21T15:40:49.942Z,12.50
2023-03-21T15:43:19.782Z,12.30
2023-03-21T15:45:51.058Z,12.20
2023-03-21T15:48:23.096Z,12.00
2023-03-21T15:50:57.575Z,12.00
2023-03-21T15:53:26.013Z,11.90
2023-03-21T15:56:01.945Z,11.80
2023-03-21T15:58:36.074Z,11.80
2023-03-21T16:01:07.877Z,11.90
2023-03-21T16:03:38.045Z,11.90
2023-03-21T16:06:11.036Z,12.00
2023-03-21T16:08:44.738Z,12.00
2023-03-21T16:11:19.057Z,12.10
2023-03-21T16:13:47.264Z,12.10
2023-03-21T16:16:19.107Z,12.20
2023-03-21T16:18:47.188Z,12.10
2023-03-21T16:21:17.265Z,12.10
2023-03-21T16:23:45.489Z,12.10
2023-03-21T16:26:14.816Z,12.10
2023-03-21T16:28:43.044Z,12.10
2023-03-21T16:31:14.566Z,12.10
2023-03-21T16:33:44.283Z,12.10
2023-03-21T16:36:15.535Z,12.10
2023-03-21T16:38:43.528Z,12.10
2023-03-21T16:41:12.496Z,12.00
2023-03-21T16:43:43.846Z,11.90
2023-03-21T16:46:14.682Z,12.00
2023-03-21T16:48:46.171Z,12.00
2023-03-21T16:51:15.312Z,12.00
2023-03-21T16:53:43.713Z,11.90
2023-03-21T16:56:16.672Z,11.90
2023-03-21T16:58:44.938Z,13.50
2023-03-21T17:01:16.078Z,11.90
2023-03-21T17:03:45.830Z,11.90
2023-03-21T17:06:18.593Z,11.90
2023-03-21T17:08:47.277Z,11.90
2023-03-21T17:11:19.983Z,11.90
2023-03-21T17:13:48.331Z,11.90
2023-03-21T17:16:19.261Z,11.80
2023-03-21T17:18:49.372Z,11.70
2023-03-21T17:21:19.284Z,11.80
2023-03-21T17:23:47.815Z,11.80
2023-03-21T17:26:19.421Z,11.90
2023-03-21T17:28:47.396Z,11.70
2023-03-21T17:31:16.953Z,11.70
2023-03-21T17:33:45.828Z,11.70
2023-03-21T17:36:17.396Z,11.60
2023-03-21T17:38:46.588Z,11.60
2023-03-21T17:41:16.589Z,11.60
2023-03-21T17:43:44.836Z,11.70
2023-03-21T17:46:14.164Z,11.70
2023-03-21T17:48:43.129Z,11.60
2023-03-21T17:51:14.636Z,11.60
2023-03-21T17:53:44.088Z,11.50
2023-03-21T17:56:15.932Z,11.60
2023-03-21T17:58:44.049Z,11.60
2023-03-21T18:01:12.020Z,11.60
2023-03-21T18:03:40.193Z,11.70
2023-03-21T18:06:13.823Z,11.70
2023-03-21T18:08:43.403Z,11.70
2023-03-21T18:11:12.779Z,11.70
2023-03-21T18:13:40.762Z,11.80
2023-03-21T18:16:11.345Z,11.80
2023-03-21T18:18:39.343Z,11.70
2023-03-21T18:21:10.948Z,11.80
2023-03-21T18:23:39.043Z,11.80
2023-03-21T18:26:09.671Z,11.80
2023-03-21T18:28:39.967Z,11.80
2023-03-21T18:31:16.262Z,11.70
2023-03-21T18:33:48.047Z,11.70
2023-03-21T18:36:24.861Z,11.60
2023-03-21T18:38:55.479Z,11.70
2023-03-21T18:41:24.851Z,11.70
2023-03-21T18:44:05.839Z,11.70
2023-03-21T18:46:46.841Z,11.70
2023-03-21T18:49:58.882Z,11.70
2023-03-21T18:52:03.474Z,11.70
2023-03-21T18:54:31.534Z,11.70
2023-03-21T18:59:49.104Z,11.60
2023-03-21T19:02:17.142Z,11.70
2023-03-21T19:04:45.522Z,11.60
2023-03-21T19:07:13.570Z,11.60
2023-03-21T19:12:31.334Z,11.50
2023-03-21T19:14:59.312Z,11.50
2023-03-21T19:18:21.867Z,11.60
2023-03-21T19:20:16.609Z,11.50
2023-03-21T19:22:44.865Z,11.60
2023-03-21T19:25:14.562Z,11.60
2023-03-21T19:27:44.140Z,11.60
2023-03-21T19:30:15.826Z,11.60
2023-03-21T19:32:44.495Z,11.60
2023-03-21T19:35:13.222Z,11.60
2023-03-21T19:37:41.407Z,11.50
2023-03-21T19:40:10.423Z,11.40
2023-03-21T19:42:38.452Z,11.40
2023-03-21T19:45:09.302Z,11.30
2023-03-21T19:47:37.293Z,11.20
2023-03-21T19:50:45.566Z,11.30
2023-03-21T19:52:54.354Z,11.30
2023-03-21T19:55:22.357Z,11.30
2023-03-21T19:57:50.618Z,11.30
2023-03-21T20:00:21.221Z,11.30
2023-03-21T20:02:49.270Z,11.40
2023-03-21T20:05:19.702Z,11.40
2023-03-21T20:07:47.808Z,11.30
2023-03-21T20:10:15.818Z,11.30
2023-03-21T20:12:43.863Z,11.30
2023-03-21T20:15:19.225Z,11.30
2023-03-21T20:17:50.845Z,11.30
2023-03-21T20:20:19.562Z,11.30
2023-03-21T20:25:40.975Z,11.20
2023-03-21T20:28:24.682Z,11.20
2023-03-21T20:30:56.922Z,11.20
2023-03-21T20:33:26.591Z,11.10
2023-03-21T20:38:51.426Z,11.10
2023-03-21T20:41:19.554Z,11.10
2023-03-21T20:44:29.899Z,11.10
2023-03-21T20:46:37.693Z,11.10
2023-03-21T20:49:07.677Z,11.10
2023-03-21T20:54:24.377Z,11.20
2023-03-21T20:56:52.367Z,11.00
2023-03-21T20:59:26.404Z,11.00
2023-03-21T21:01:55.756Z,11.10
2023-03-21T21:04:44.295Z,11.00
2023-03-21T21:07:16.201Z,10.90
2023-03-21T21:09:45.017Z,10.90
2023-03-21T21:12:13.850Z,10.90
2023-03-21T21:14:42.766Z,10.90
2023-03-21T21:17:28.377Z,10.90
2023-03-21T21:20:01.565Z,10.90
2023-03-21T21:22:29.906Z,10.90
2023-03-21T21:24:57.838Z,10.90
2023-03-21T21:27:26.102Z,10.90
2023-03-21T21:29:54.052Z,10.90
2023-03-21T21:32:22.126Z,10.80
2023-03-21T21:34:50.283Z,10.70
2023-03-21T21:37:19.590Z,10.80
2023-03-21T21:39:47.866Z,10.80
2023-03-21T21:42:16.353Z,10.90
2023-03-21T21:44:46.709Z,10.80
2023-03-21T21:47:15.555Z,10.80
2023-03-21T21:49:43.524Z,10.70
2023-03-21T21:52:13.567Z,10.70
2023-03-21T21:54:45.795Z,10.60
2023-03-21T21:57:14.637Z,10.60
2023-03-21T21:59:42.644Z,10.60
2023-03-21T22:02:13.793Z,10.60
2023-03-21T22:04:41.933Z,10.60
2023-03-21T22:07:14.397Z,10.60
2023-03-21T22:09:44.885Z,10.60
2023-03-21T22:12:12.887Z,10.70
2023-03-21T22:14:40.945Z,10.70
2023-03-21T22:17:09.090Z,10.70
2023-03-21T22:19:39.133Z,10.80
2023-03-21T22:22:08.170Z,10.80
2023-03-21T22:24:37.440Z,10.70
2023-03-21T22:27:06.910Z,10.70
2023-03-21T22:29:34.855Z,10.70
2023-03-21T22:32:02.862Z,10.80
2023-03-21T22:34:31.175Z,10.70
2023-03-21T22:36:59.750Z,10.60
2023-03-21T22:39:28.711Z,10.60
2023-03-21T22:42:00.818Z,10.50
2023-03-21T22:44:34.548Z,10.60
2023-03-21T22:47:03.127Z,10.50
2023-03-21T22:49:31.839Z,10.40
2023-03-21T22:52:00.007Z,10.30
2023-03-21T22:54:28.418Z,10.30
2023-03-21T22:56:56.927Z,10.20
2023-03-21T22:59:25.103Z,10.20
2023-03-21T23:01:54.577Z,10.10
2023-03-21T23:04:22.580Z,10.10
2023-03-21T23:06:50.916Z,9.90
2023-03-21T23:09:18.890Z,9.80
2023-03-21T23:11:49.610Z,9.60
2023-03-21T23:14:19.443Z,9.70
2023-03-21T23:16:47.698Z,9.50
2023-03-21T23:19:17.461Z,9.50
2023-03-21T23:21:46.358Z,9.40
2023-03-21T23:24:14.570Z,9.50
2023-03-21T23:26:42.759Z,9.60
2023-03-21T23:29:11.813Z,9.60
2023-03-21T23:31:40.048Z,9.70
2023-03-21T23:34:08.355Z,9.70
2023-03-21T23:36:37.841Z,9.60
2023-03-21T23:39:06.604Z,9.60
2023-03-21T23:41:34.552Z,9.60
2023-03-21T23:44:03.100Z,9.60
2023-03-21T23:46:31.256Z,9.60
2023-03-21T23:48:59.306Z,9.60
2023-03-21T23:51:27.324Z,9.70
2023-03-21T23:53:57.204Z,9.70
2023-03-21T23:56:27.431Z,9.50
2023-03-21T23:58:55.455Z,9.50
